Huvudsida
METAR-TAF:

METAR-TAF

Flygplatser :

Locarnos flygplats

Locarno, Schweiz

latitud: 46-09-55N, longitud: 8-52-40E, höjd: 198 m

Aktuellt väderrapport

Denna rapport gjordes för 43 minuter sedan, klockan 21:50 UTC
Vind 1 kt varierande vindriktning
Temperatur 6°C
Fuktighet 100%
Tryck 1005 hPa
Sikt: 4500 m
Få moln på en höjd av 500 ft
Spridda moln på en höjd av 700 ft
lätt regn

METAR: LSZL 152150Z AUTO VRB01KT 4500NDV -RA FEW005 SCT007 06/06 Q1005 RMK

Tid: 23:33 (22:33 UTC)

Väderprognos

Denna rapport gjordes för 5 timmar och 8 minuter sedan, klockan 17:25 UTC
Prognos gäller från 15 kl. 18 UTC till 16 kl. 03 UTC
Vind 3 kt varierande vindriktning
Sikt: 6000 m
Få moln på en höjd av 1200 ft
Brutna moln på en höjd av 3500 ft
lätta regnskurar
Temporärt
från 15 kl. 18 UTC till 15 kl. 19 UTC
Sikt: 4500 m
regnskurar

TAF: LSZL 151725Z 1518/1603 VRB03KT 6000 -SHRA FEW012 BKN035 TEMPO 1518/1519 4500 SHRA

Aktuella väderrapporter och prognoser från 4000 flygplatser (METAR- och TAF-rapporter).

De tillgängliga stationerna syns som gula och röda prickar på kartan.

För musen över prickarna för att se namnen på stationerna.

Klicka sedan för att få väderrapporter och prognoser.

För att ändra kartan: Klicka på de gröna knapparna med ett svart kors på för att zooma in; den gröna knappen med ett streck på för att zooma ut; eller på de gröna pilarna för angränsande kartor.


METAR-TAF: